Sunshine, North Carolina
Current Conditions -  °F | °C
As of 5:15 AM on Monday 26 Jan 2015 (Local Time) from KFQD Reporting Station
Clear Clear  
Wind Chill: 35°   Ceiling: Unl
Heat Index: 35°   Visibility: 10mi
Dew Point: 31°   Wind: 0mph
Humidity: 86%   Direction: NA
Pressure: 29.62"   Gusts: NA
Location:  35.4977°N, 81.7958°W
Report Text: KFQD 261015Z AUTO 00000KT 10SM CLR 02/00 A2962 RMK AO2 T00161005
Loading
Personal Weather Stations






























Interactive Weather Map New forecast layout! Learn more

10-Day Weather Forecast

Advertisements
Track Severe Weather on mobile